createdAt,value
2024-03-05T00:00:30.900Z,60.40
2024-03-05T00:02:57.782Z,61.63
2024-03-05T00:05:24.877Z,57.70
2024-03-05T00:07:52.335Z,51.77
2024-03-05T00:10:19.456Z,54.40
2024-03-05T00:12:47.451Z,60.53
2024-03-05T00:15:14.319Z,60.37
2024-03-05T00:17:41.394Z,59.80
2024-03-05T00:20:14.499Z,55.40
2024-03-05T00:22:43.178Z,57.37
2024-03-05T00:25:09.970Z,54.27
2024-03-05T00:27:36.738Z,55.20
2024-03-05T00:30:05.345Z,54.80
2024-03-05T00:32:33.085Z,58.30
2024-03-05T00:35:00.840Z,51.00
2024-03-05T00:37:27.983Z,55.97
2024-03-05T00:39:54.769Z,53.93
2024-03-05T00:42:21.551Z,57.33
2024-03-05T00:44:48.745Z,54.57
2024-03-05T00:47:15.631Z,56.00
2024-03-05T00:49:42.501Z,56.93
2024-03-05T00:52:09.309Z,54.57
2024-03-05T00:54:36.262Z,53.00
2024-03-05T00:57:03.088Z,53.03
2024-03-05T00:59:31.234Z,49.90
2024-03-05T01:01:58.721Z,55.90
2024-03-05T01:04:26.998Z,55.97
2024-03-05T01:06:53.805Z,55.50
2024-03-05T01:09:25.709Z,57.50
2024-03-05T01:11:53.413Z,52.53
2024-03-05T01:14:23.343Z,54.40
2024-03-05T01:16:50.591Z,48.53
2024-03-05T01:19:17.499Z,53.57
2024-03-05T01:21:44.268Z,55.20
2024-03-05T01:24:11.194Z,50.80
2024-03-05T01:26:39.950Z,50.20
2024-03-05T01:29:06.988Z,50.50
2024-03-05T01:31:34.909Z,55.13
2024-03-05T01:34:01.978Z,47.90
2024-03-05T01:36:30.646Z,56.50
2024-03-05T01:38:57.425Z,50.33
2024-03-05T01:41:24.437Z,46.13
2024-03-05T01:43:51.275Z,54.50
2024-03-05T01:46:19.420Z,46.80
2024-03-05T01:48:46.361Z,62.53
2024-03-05T01:51:18.341Z,52.43
2024-03-05T01:53:47.039Z,47.93
2024-03-05T01:56:17.813Z,48.10
2024-03-05T01:58:45.848Z,52.60
2024-03-05T02:01:14.918Z,50.50
2024-03-05T02:03:42.367Z,46.70
2024-03-05T02:06:12.000Z,55.00
2024-03-05T02:08:40.263Z,42.33
2024-03-05T02:11:09.415Z,55.10
2024-03-05T02:13:38.659Z,48.00
2024-03-05T02:16:06.903Z,47.70
2024-03-05T02:18:33.938Z,60.07
2024-03-05T02:21:03.360Z,51.40
2024-03-05T02:23:30.501Z,49.07
2024-03-05T02:25:57.550Z,51.03
2024-03-05T02:28:24.388Z,53.03
2024-03-05T02:30:51.807Z,50.73
2024-03-05T02:33:20.054Z,51.70
2024-03-05T02:35:47.626Z,49.33
2024-03-05T02:38:14.772Z,70.33
2024-03-05T02:40:41.588Z,53.67
2024-03-05T02:43:08.357Z,51.60
2024-03-05T02:45:35.141Z,49.10
2024-03-05T02:48:05.365Z,55.33
2024-03-05T02:50:32.185Z,48.50
2024-03-05T02:52:58.972Z,54.20
2024-03-05T02:55:25.811Z,56.63
2024-03-05T02:57:52.551Z,57.13
2024-03-05T03:00:22.625Z,50.10
2024-03-05T03:02:50.192Z,53.53
2024-03-05T03:05:23.574Z,53.07
2024-03-05T03:07:52.093Z,51.17
2024-03-05T03:10:20.042Z,54.03
2024-03-05T03:12:49.109Z,55.43
2024-03-05T03:15:19.159Z,50.93
2024-03-05T03:17:46.073Z,49.63
2024-03-05T03:20:16.983Z,54.77
2024-03-05T03:22:44.923Z,46.80
2024-03-05T03:25:12.397Z,52.10
2024-03-05T03:27:39.419Z,49.33
2024-03-05T03:30:06.909Z,50.53
2024-03-05T03:32:35.705Z,50.80
2024-03-05T03:35:07.035Z,58.93
2024-03-05T03:37:33.981Z,58.23
2024-03-05T03:40:00.834Z,53.73
2024-03-05T03:42:28.959Z,53.83
2024-03-05T03:44:55.797Z,58.30
2024-03-05T03:47:23.076Z,51.27
2024-03-05T03:49:49.890Z,56.63
2024-03-05T03:52:17.127Z,54.50
2024-03-05T03:54:43.895Z,57.20
2024-03-05T03:57:11.496Z,51.53
2024-03-05T03:59:38.837Z,51.00
2024-03-05T04:02:06.115Z,49.27
2024-03-05T04:04:33.245Z,46.73
2024-03-05T04:07:00.939Z,52.30
2024-03-05T04:09:27.758Z,63.37
2024-03-05T04:11:54.802Z,62.37
2024-03-05T04:14:21.764Z,54.80
2024-03-05T04:16:48.566Z,54.30
2024-03-05T04:19:15.455Z,45.73
2024-03-05T04:21:42.856Z,57.33
2024-03-05T04:24:13.783Z,59.13
2024-03-05T04:26:42.372Z,57.43
2024-03-05T04:29:10.554Z,56.77
2024-03-05T04:31:46.983Z,52.83
2024-03-05T04:34:20.436Z,56.73
2024-03-05T04:36:47.386Z,54.03
2024-03-05T04:39:16.784Z,57.03
2024-03-05T04:41:46.924Z,55.80
2024-03-05T04:44:14.855Z,69.10
2024-03-05T04:46:42.190Z,51.27
2024-03-05T04:49:09.049Z,55.03
2024-03-05T04:51:36.294Z,49.83
2024-03-05T04:54:03.225Z,52.50
2024-03-05T04:56:30.022Z,54.50
2024-03-05T04:58:57.580Z,46.07
2024-03-05T05:01:24.644Z,52.50
2024-03-05T05:03:51.449Z,47.47
2024-03-05T05:06:18.185Z,47.37
2024-03-05T05:08:46.978Z,51.23
2024-03-05T05:11:13.948Z,49.67
2024-03-05T05:13:43.052Z,62.43
2024-03-05T05:16:13.028Z,45.80
2024-03-05T05:18:39.997Z,57.63
2024-03-05T05:21:08.717Z,58.47
2024-03-05T05:23:35.855Z,54.20
2024-03-05T05:26:03.278Z,54.47
2024-03-05T05:28:30.417Z,52.93
2024-03-05T05:30:57.437Z,56.83
2024-03-05T05:33:24.253Z,51.90
2024-03-05T05:35:51.394Z,46.40
2024-03-05T05:38:18.184Z,51.37
2024-03-05T05:40:45.014Z,47.70
2024-03-05T05:43:12.542Z,49.17
2024-03-05T05:45:39.336Z,48.93
2024-03-05T05:48:06.769Z,51.97
2024-03-05T05:50:33.647Z,52.07
2024-03-05T05:53:00.990Z,55.50
2024-03-05T05:55:28.549Z,55.27
2024-03-05T05:57:56.428Z,53.50
2024-03-05T06:00:26.122Z,49.83
2024-03-05T06:02:56.143Z,54.00
2024-03-05T06:05:32.547Z,55.07
2024-03-05T06:08:00.608Z,51.23
2024-03-05T06:12:55.387Z,47.67
2024-03-05T06:15:22.285Z,57.03
2024-03-05T06:17:49.396Z,57.30
2024-03-05T06:20:16.283Z,54.93
2024-03-05T06:22:44.611Z,47.90
2024-03-05T06:25:14.548Z,47.30
2024-03-05T06:27:41.999Z,43.57
2024-03-05T06:30:14.308Z,56.90
2024-03-05T06:32:47.720Z,48.47
2024-03-05T06:35:23.557Z,51.87
2024-03-05T06:37:51.480Z,55.50
2024-03-05T06:40:24.108Z,50.37
2024-03-05T06:43:06.619Z,55.47
2024-03-05T06:45:35.718Z,51.47
2024-03-05T06:48:15.663Z,52.20
2024-03-05T06:50:44.633Z,53.70
2024-03-05T06:53:31.730Z,54.80
2024-03-05T06:56:17.613Z,54.50
2024-03-05T06:58:49.495Z,44.33
2024-03-05T07:01:17.168Z,46.07
2024-03-05T07:03:44.384Z,47.03
2024-03-05T07:06:13.502Z,55.63
2024-03-05T07:08:45.621Z,43.10
2024-03-05T07:11:14.175Z,60.50
2024-03-05T07:13:49.753Z,46.60
2024-03-05T07:16:18.548Z,49.30
2024-03-05T07:18:50.885Z,48.60
2024-03-05T07:21:21.124Z,45.27
2024-03-05T07:23:52.796Z,48.90
2024-03-05T07:26:20.585Z,50.70
2024-03-05T07:28:48.213Z,48.77
2024-03-05T07:31:16.788Z,58.10
2024-03-05T07:33:45.018Z,56.63
2024-03-05T07:36:12.663Z,45.70
2024-03-05T07:38:39.775Z,47.93
2024-03-05T07:41:17.134Z,40.40
2024-03-05T07:43:49.534Z,47.63
2024-03-05T07:46:18.746Z,47.27
2024-03-05T07:48:45.585Z,44.53
2024-03-05T07:51:13.051Z,49.10
2024-03-05T07:53:42.777Z,46.63
2024-03-05T07:56:09.845Z,44.33
2024-03-05T07:58:36.851Z,51.20
2024-03-05T08:01:05.897Z,47.43
2024-03-05T08:03:32.634Z,50.10
2024-03-05T08:06:00.258Z,47.93
2024-03-05T08:08:27.307Z,39.67
2024-03-05T08:10:54.241Z,51.13
2024-03-05T08:13:21.427Z,43.47
2024-03-05T08:15:48.282Z,43.73
2024-03-05T08:18:17.169Z,54.10
2024-03-05T08:20:45.177Z,43.57
2024-03-05T08:23:12.784Z,47.67
2024-03-05T08:25:39.650Z,55.53
2024-03-05T08:28:07.063Z,51.40
2024-03-05T08:30:34.310Z,49.40
2024-03-05T08:33:04.935Z,45.00
2024-03-05T08:35:32.524Z,46.83
2024-03-05T08:38:02.481Z,48.00
2024-03-05T08:40:34.261Z,47.90
2024-03-05T08:43:04.853Z,46.27
2024-03-05T08:45:33.065Z,45.50
2024-03-05T08:48:00.317Z,49.57
2024-03-05T08:50:30.391Z,59.53
2024-03-05T08:52:59.553Z,55.40
2024-03-05T08:55:27.450Z,51.13
2024-03-05T08:57:55.672Z,47.37
2024-03-05T09:00:33.148Z,46.23
2024-03-05T09:03:09.142Z,49.63
2024-03-05T09:05:37.498Z,56.03
2024-03-05T09:08:06.072Z,52.33
2024-03-05T09:10:33.426Z,49.60
2024-03-05T09:13:00.330Z,57.77
2024-03-05T09:15:27.222Z,44.63
2024-03-05T09:17:54.135Z,47.97
2024-03-05T09:20:20.912Z,50.60
2024-03-05T09:22:48.158Z,48.30
2024-03-05T09:25:16.685Z,53.70
2024-03-05T09:27:46.205Z,44.50
2024-03-05T09:30:16.168Z,47.57
2024-03-05T09:32:44.666Z,51.17
2024-03-05T09:35:14.172Z,45.97
2024-03-05T09:37:44.466Z,53.03
2024-03-05T09:40:18.745Z,48.77
2024-03-05T09:42:46.750Z,49.30
2024-03-05T09:45:19.011Z,60.93
2024-03-05T09:47:48.712Z,45.90
2024-03-05T09:50:18.294Z,54.50
2024-03-05T09:52:47.472Z,42.73
2024-03-05T09:55:15.410Z,46.20
2024-03-05T09:57:43.289Z,41.43
2024-03-05T10:00:16.509Z,43.20
2024-03-05T10:02:46.889Z,49.87
2024-03-05T10:05:17.283Z,43.77
2024-03-05T10:07:44.492Z,47.00
2024-03-05T10:10:18.611Z,44.50
2024-03-05T10:12:45.386Z,44.43
2024-03-05T10:15:27.173Z,52.87
2024-03-05T10:17:56.014Z,44.63
2024-03-05T10:20:27.461Z,53.67
2024-03-05T10:22:59.545Z,56.07
2024-03-05T10:25:31.052Z,45.43
2024-03-05T10:27:58.145Z,43.53
2024-03-05T10:30:38.491Z,45.70
2024-03-05T10:33:08.854Z,43.77
2024-03-05T10:35:37.922Z,39.97
2024-03-05T10:38:08.981Z,55.37
2024-03-05T10:40:37.056Z,46.63
2024-03-05T10:43:06.689Z,46.17
2024-03-05T10:45:39.408Z,40.70
2024-03-05T10:48:08.641Z,37.87
2024-03-05T10:50:40.015Z,40.00
2024-03-05T10:53:11.233Z,43.67
2024-03-05T10:55:39.829Z,39.63
2024-03-05T10:58:14.693Z,41.33
2024-03-05T11:00:44.858Z,40.33
2024-03-05T11:03:14.217Z,42.03
2024-03-05T11:05:54.743Z,51.50
2024-03-05T11:08:28.122Z,39.30
2024-03-05T11:11:03.751Z,45.20
2024-03-05T11:13:33.668Z,46.17
2024-03-05T11:16:05.043Z,34.37
2024-03-05T11:18:33.097Z,34.97
2024-03-05T11:21:15.888Z,50.70
2024-03-05T11:23:56.598Z,44.70
2024-03-05T11:26:25.600Z,42.53
2024-03-05T11:29:04.623Z,38.03
2024-03-05T11:31:31.840Z,38.33
2024-03-05T11:33:59.691Z,41.53
2024-03-05T11:36:27.726Z,39.47
2024-03-05T11:39:03.473Z,34.03
2024-03-05T11:41:33.098Z,38.80
2024-03-05T11:44:00.280Z,39.63
2024-03-05T11:46:52.016Z,36.93
2024-03-05T11:49:22.117Z,37.33
2024-03-05T11:51:49.149Z,33.97
2024-03-05T11:54:20.081Z,51.53
2024-03-05T11:57:00.359Z,40.33
2024-03-05T11:59:38.387Z,31.73
2024-03-05T12:02:17.112Z,43.17
2024-03-05T12:04:45.575Z,31.37
2024-03-05T12:07:13.837Z,31.00
2024-03-05T12:09:41.379Z,45.77
2024-03-05T12:12:17.675Z,36.77
2024-03-05T12:14:56.523Z,34.63
2024-03-05T12:17:25.087Z,30.43
2024-03-05T12:20:00.739Z,31.23
2024-03-05T12:22:27.830Z,31.20
2024-03-05T12:24:54.856Z,37.47
2024-03-05T12:27:22.659Z,33.37
2024-03-05T12:29:53.251Z,36.23
2024-03-05T12:32:20.387Z,39.53
2024-03-05T12:34:48.909Z,41.67
2024-03-05T12:37:18.360Z,35.50
2024-03-05T12:39:45.193Z,33.17
2024-03-05T12:42:15.108Z,35.63
2024-03-05T12:44:42.596Z,32.60
2024-03-05T12:47:16.443Z,29.80
2024-03-05T12:49:46.189Z,41.83
2024-03-05T12:52:24.251Z,38.27
2024-03-05T12:55:05.556Z,34.83
2024-03-05T12:57:34.321Z,36.27
2024-03-05T13:00:03.419Z,31.33
2024-03-05T13:02:30.723Z,37.30
2024-03-05T13:04:59.331Z,31.67
2024-03-05T13:07:27.315Z,38.07
2024-03-05T13:09:55.574Z,30.17
2024-03-05T13:12:22.378Z,33.20
2024-03-05T13:14:49.226Z,39.73
2024-03-05T13:17:16.353Z,30.23
2024-03-05T13:19:44.249Z,31.27
2024-03-05T13:22:11.096Z,30.90
2024-03-05T13:24:39.340Z,36.63
2024-03-05T13:27:06.125Z,48.67
2024-03-05T13:29:32.983Z,32.63
2024-03-05T13:32:00.591Z,32.57
2024-03-05T13:34:28.593Z,37.30
2024-03-05T13:36:55.754Z,49.23
2024-03-05T13:39:25.547Z,30.83
2024-03-05T13:41:55.898Z,44.40
2024-03-05T13:44:23.824Z,37.67
2024-03-05T13:46:52.458Z,35.67
2024-03-05T13:49:21.664Z,31.77
2024-03-05T13:51:49.868Z,35.40
2024-03-05T13:54:20.107Z,39.07
2024-03-05T13:56:49.658Z,34.03
2024-03-05T13:59:16.447Z,30.67
2024-03-05T14:01:43.880Z,28.00
2024-03-05T14:04:11.359Z,34.00
2024-03-05T14:06:39.283Z,32.37
2024-03-05T14:09:09.827Z,33.97
2024-03-05T14:11:37.201Z,34.17
2024-03-05T14:14:04.653Z,40.17
2024-03-05T14:16:32.327Z,31.20
2024-03-05T14:18:59.930Z,31.10
2024-03-05T14:21:30.726Z,30.33
2024-03-05T14:23:58.606Z,30.07
2024-03-05T14:26:25.494Z,38.23
2024-03-05T14:28:52.662Z,37.43
2024-03-05T14:31:20.043Z,31.27
2024-03-05T14:33:47.727Z,30.23
2024-03-05T14:36:15.401Z,31.93
2024-03-05T14:38:43.783Z,32.60
2024-03-05T14:41:11.361Z,39.47
2024-03-05T14:43:38.481Z,34.67
2024-03-05T14:46:06.577Z,30.97
2024-03-05T14:48:34.193Z,45.83
2024-03-05T14:51:01.965Z,36.60
2024-03-05T14:53:29.126Z,32.60
2024-03-05T14:55:56.103Z,36.80
2024-03-05T14:58:23.124Z,31.57
2024-03-05T15:00:50.072Z,35.77
2024-03-05T15:03:19.112Z,34.33
2024-03-05T15:05:46.599Z,32.33
2024-03-05T15:08:14.154Z,33.63
2024-03-05T15:10:41.446Z,33.20
2024-03-05T15:13:09.482Z,33.80
2024-03-05T15:15:37.527Z,96.73
2024-03-05T15:18:06.624Z,30.07
2024-03-05T15:20:34.760Z,35.63
2024-03-05T15:23:02.114Z,31.00
2024-03-05T15:25:29.776Z,29.13
2024-03-05T15:28:02.285Z,30.10
2024-03-05T15:30:34.535Z,36.73
2024-03-05T15:33:03.166Z,31.40
2024-03-05T15:35:31.356Z,33.43
2024-03-05T15:38:03.129Z,36.20
2024-03-05T15:40:30.174Z,32.37
2024-03-05T15:42:57.956Z,33.30
2024-03-05T15:45:25.918Z,33.10
2024-03-05T15:47:55.712Z,36.30
2024-03-05T15:50:24.410Z,33.73
2024-03-05T15:52:55.527Z,33.93
2024-03-05T15:55:29.516Z,33.10
2024-03-05T15:58:04.335Z,32.90
2024-03-05T16:00:36.612Z,32.20
2024-03-05T16:03:09.025Z,33.43
2024-03-05T16:05:51.712Z,35.03
2024-03-05T16:08:27.089Z,38.60
2024-03-05T16:10:54.857Z,43.50
2024-03-05T16:13:22.280Z,31.40
2024-03-05T16:15:49.490Z,31.97
2024-03-05T16:18:16.754Z,38.37
2024-03-05T16:20:44.169Z,32.70
2024-03-05T16:23:11.635Z,32.97
2024-03-05T16:25:42.574Z,32.60
2024-03-05T16:28:11.379Z,31.50
2024-03-05T16:30:38.785Z,37.10
2024-03-05T16:33:06.558Z,33.60
2024-03-05T16:35:33.911Z,32.77
2024-03-05T16:38:03.325Z,33.37
2024-03-05T16:40:30.741Z,30.60
2024-03-05T16:42:59.959Z,39.90
2024-03-05T16:45:28.143Z,37.70
2024-03-05T16:47:57.715Z,33.93
2024-03-05T16:50:27.848Z,33.30
2024-03-05T16:52:57.950Z,34.17
2024-03-05T16:55:25.818Z,33.10
2024-03-05T16:57:54.133Z,32.00
2024-03-05T17:00:28.721Z,37.30
2024-03-05T17:02:56.909Z,33.47
2024-03-05T17:05:24.914Z,33.57
2024-03-05T17:07:59.852Z,33.87
2024-03-05T17:10:28.129Z,33.10
2024-03-05T17:12:57.727Z,32.43
2024-03-05T17:15:28.552Z,33.47
2024-03-05T17:18:00.302Z,36.13
2024-03-05T17:20:34.251Z,35.17
2024-03-05T17:23:03.486Z,37.30
2024-03-05T17:25:39.597Z,34.37
2024-03-05T17:28:10.436Z,33.80
2024-03-05T17:30:39.322Z,42.60
2024-03-05T17:33:10.851Z,35.00
2024-03-05T17:35:39.852Z,34.47
2024-03-05T17:38:10.634Z,37.80
2024-03-05T17:40:37.494Z,37.77
2024-03-05T17:43:05.098Z,40.00
2024-03-05T17:45:32.988Z,37.57
2024-03-05T17:48:06.045Z,43.20
2024-03-05T17:50:33.621Z,35.93
2024-03-05T17:53:00.549Z,39.53
2024-03-05T17:55:28.642Z,45.37
2024-03-05T17:57:56.983Z,39.47
2024-03-05T18:00:28.129Z,38.70
2024-03-05T18:02:56.947Z,48.10
2024-03-05T18:05:29.145Z,40.73
2024-03-05T18:07:57.483Z,44.20
2024-03-05T18:10:25.097Z,41.57
2024-03-05T18:12:52.578Z,39.87
2024-03-05T18:15:21.290Z,38.53
2024-03-05T18:17:52.582Z,46.60
2024-03-05T18:20:23.501Z,41.30
2024-03-05T18:22:50.765Z,46.47
2024-03-05T18:25:18.770Z,39.33
2024-03-05T18:27:56.977Z,55.70
2024-03-05T18:30:39.964Z,43.50
2024-03-05T18:33:09.666Z,40.93
2024-03-05T18:35:40.553Z,38.80
2024-03-05T18:38:20.404Z,36.70
2024-03-05T18:40:55.051Z,39.13
2024-03-05T18:43:22.480Z,38.53
2024-03-05T18:45:51.206Z,41.80
2024-03-05T18:48:18.651Z,47.33
2024-03-05T18:50:46.876Z,40.37
2024-03-05T18:53:18.979Z,40.13
2024-03-05T18:55:47.048Z,41.33
2024-03-05T18:58:13.978Z,50.37
2024-03-05T19:00:42.904Z,40.63
2024-03-05T19:03:10.529Z,47.10
2024-03-05T19:05:37.718Z,46.10
2024-03-05T19:08:06.696Z,49.27
2024-03-05T19:10:33.800Z,42.63
2024-03-05T19:13:00.825Z,50.37
2024-03-05T19:15:29.322Z,66.83
2024-03-05T19:17:57.874Z,47.30
2024-03-05T19:20:24.781Z,49.23
2024-03-05T19:22:51.573Z,45.30
2024-03-05T19:25:21.505Z,51.70
2024-03-05T19:27:48.309Z,49.67
2024-03-05T19:30:18.550Z,42.07
2024-03-05T19:32:46.486Z,49.30
2024-03-05T19:35:16.845Z,48.40
2024-03-05T19:37:49.041Z,46.50
2024-03-05T19:40:17.792Z,42.73
2024-03-05T19:42:46.399Z,58.40
2024-03-05T19:45:14.368Z,53.40
2024-03-05T19:47:41.327Z,43.03
2024-03-05T19:50:08.584Z,47.60
2024-03-05T19:52:39.251Z,43.83
2024-03-05T19:55:07.052Z,45.40
2024-03-05T19:57:34.650Z,44.80
2024-03-05T20:00:03.332Z,46.30
2024-03-05T20:02:30.545Z,44.67
2024-03-05T20:04:57.497Z,45.00
2024-03-05T20:07:24.323Z,44.47
2024-03-05T20:09:51.086Z,46.10
2024-03-05T20:12:18.752Z,46.20
2024-03-05T20:14:46.396Z,52.40
2024-03-05T20:17:15.839Z,57.83
2024-03-05T20:19:43.540Z,49.00
2024-03-05T20:22:11.898Z,48.87
2024-03-05T20:24:38.742Z,49.70
2024-03-05T20:27:08.501Z,55.57
2024-03-05T20:29:35.471Z,55.00
2024-03-05T20:32:07.117Z,49.77
2024-03-05T20:34:34.395Z,52.77
2024-03-05T20:37:02.001Z,50.27
2024-03-05T20:39:28.879Z,48.97
2024-03-05T20:41:55.738Z,47.90
2024-03-05T20:44:22.528Z,52.27
2024-03-05T20:46:49.337Z,51.97
2024-03-05T20:49:17.257Z,49.87
2024-03-05T20:51:44.046Z,50.33
2024-03-05T20:54:14.489Z,52.67
2024-03-05T20:56:41.241Z,50.63
2024-03-05T20:59:08.154Z,52.37
2024-03-05T21:01:37.839Z,50.50
2024-03-05T21:04:06.181Z,49.27
2024-03-05T21:06:33.957Z,52.17
2024-03-05T21:09:01.307Z,52.93
2024-03-05T21:11:28.282Z,63.87
2024-03-05T21:13:55.126Z,65.77
2024-03-05T21:16:21.979Z,57.80
2024-03-05T21:18:49.904Z,59.00
2024-03-05T21:21:16.973Z,64.27
2024-03-05T21:23:43.786Z,57.53
2024-03-05T21:26:23.171Z,55.93
2024-03-05T21:28:57.558Z,61.43
2024-03-05T21:31:25.350Z,53.97
2024-03-05T21:33:52.171Z,59.10
2024-03-05T21:36:18.895Z,53.47
2024-03-05T21:38:45.660Z,55.63
2024-03-05T21:41:13.542Z,56.40
2024-03-05T21:43:41.068Z,59.67
2024-03-05T21:46:09.205Z,57.67
2024-03-05T21:48:35.945Z,63.83
2024-03-05T21:51:09.240Z,60.10
2024-03-05T21:53:39.313Z,57.10
2024-03-05T21:56:06.871Z,55.17
2024-03-05T21:58:34.016Z,62.20
2024-03-05T22:01:01.072Z,54.93
2024-03-05T22:03:29.600Z,62.80
2024-03-05T22:05:59.848Z,60.27
2024-03-05T22:08:33.200Z,53.63
2024-03-05T22:11:00.191Z,61.93
2024-03-05T22:13:27.084Z,60.87
2024-03-05T22:15:53.814Z,52.40
2024-03-05T22:18:20.629Z,62.47
2024-03-05T22:20:47.571Z,54.57
2024-03-05T22:23:14.536Z,54.77
2024-03-05T22:25:41.619Z,64.33
2024-03-05T22:28:08.458Z,57.63
2024-03-05T22:30:35.228Z,59.23
2024-03-05T22:33:02.082Z,56.10
2024-03-05T22:35:28.894Z,55.27
2024-03-05T22:37:58.324Z,56.17
2024-03-05T22:40:25.492Z,57.47
2024-03-05T22:42:52.937Z,56.90
2024-03-05T22:45:22.901Z,69.87
2024-03-05T22:47:49.907Z,57.60
2024-03-05T22:50:17.386Z,60.67
2024-03-05T22:52:45.700Z,54.80
2024-03-05T22:55:13.041Z,55.83
2024-03-05T22:57:39.962Z,57.07
2024-03-05T23:00:35.961Z,53.80
2024-03-05T23:03:06.278Z,58.00
2024-03-05T23:05:33.131Z,58.17
2024-03-05T23:08:03.124Z,58.97
2024-03-05T23:10:30.440Z,54.00
2024-03-05T23:12:57.875Z,60.13
2024-03-05T23:15:25.687Z,59.70
2024-03-05T23:17:52.927Z,56.70
2024-03-05T23:20:19.910Z,64.43
2024-03-05T23:22:50.685Z,59.53
2024-03-05T23:25:17.981Z,56.60
2024-03-05T23:27:48.655Z,56.67
2024-03-05T23:30:19.836Z,61.30
2024-03-05T23:32:47.348Z,58.63
2024-03-05T23:35:15.553Z,54.67
2024-03-05T23:37:42.667Z,58.00
2024-03-05T23:40:10.924Z,52.37
2024-03-05T23:42:39.408Z,57.67
2024-03-05T23:45:06.531Z,59.20
2024-03-05T23:47:33.979Z,56.50
2024-03-05T23:50:01.704Z,57.00
2024-03-05T23:52:28.907Z,60.33
2024-03-05T23:54:58.991Z,52.70
2024-03-05T23:57:28.779Z,55.93
2024-03-05T23:59:55.756Z,52.37
